sensor_id;sensor_type;location;lat;lon;timestamp;P1;durP1;ratioP1;P2;durP2;ratioP2
3307;SDS011;1666;48.898;9.182;2022-07-03T00:01:11;4.35;;;2.40;;
3307;SDS011;1666;48.898;9.182;2022-07-03T00:03:41;3.05;;;2.40;;
3307;SDS011;1666;48.898;9.182;2022-07-03T00:06:13;4.07;;;2.40;;
3307;SDS011;1666;48.898;9.182;2022-07-03T00:08:43;2.58;;;2.22;;
3307;SDS011;1666;48.898;9.182;2022-07-03T00:11:13;6.25;;;2.10;;
3307;SDS011;1666;48.898;9.182;2022-07-03T00:13:44;3.42;;;2.42;;
3307;SDS011;1666;48.898;9.182;2022-07-03T00:16:14;4.35;;;2.20;;
3307;SDS011;1666;48.898;9.182;2022-07-03T00:18:44;2.55;;;2.03;;
3307;SDS011;1666;48.898;9.182;2022-07-03T00:21:19;3.03;;;2.30;;
3307;SDS011;1666;48.898;9.182;2022-07-03T00:23:51;4.70;;;2.58;;
3307;SDS011;1666;48.898;9.182;2022-07-03T00:26:24;5.05;;;2.63;;
3307;SDS011;1666;48.898;9.182;2022-07-03T00:28:55;2.83;;;2.40;;
3307;SDS011;1666;48.898;9.182;2022-07-03T00:31:28;3.47;;;2.23;;
3307;SDS011;1666;48.898;9.182;2022-07-03T00:34:00;5.72;;;2.20;;
3307;SDS011;1666;48.898;9.182;2022-07-03T00:36:35;3.38;;;2.05;;
3307;SDS011;1666;48.898;9.182;2022-07-03T00:39:06;4.88;;;2.20;;
3307;SDS011;1666;48.898;9.182;2022-07-03T00:41:36;3.85;;;2.22;;
3307;SDS011;1666;48.898;9.182;2022-07-03T00:44:07;3.08;;;2.30;;
3307;SDS011;1666;48.898;9.182;2022-07-03T00:46:37;3.05;;;2.22;;
3307;SDS011;1666;48.898;9.182;2022-07-03T00:49:08;3.90;;;2.45;;
3307;SDS011;1666;48.898;9.182;2022-07-03T00:51:42;6.50;;;2.55;;
3307;SDS011;1666;48.898;9.182;2022-07-03T00:54:12;5.25;;;2.38;;
3307;SDS011;1666;48.898;9.182;2022-07-03T00:56:46;3.47;;;2.60;;
3307;SDS011;1666;48.898;9.182;2022-07-03T00:59:20;2.88;;;2.20;;
3307;SDS011;1666;48.898;9.182;2022-07-03T01:01:51;4.65;;;2.25;;
3307;SDS011;1666;48.898;9.182;2022-07-03T01:04:29;4.60;;;2.55;;
3307;SDS011;1666;48.898;9.182;2022-07-03T01:07:15;3.38;;;2.30;;
3307;SDS011;1666;48.898;9.182;2022-07-03T01:09:55;4.05;;;2.60;;
3307;SDS011;1666;48.898;9.182;2022-07-03T01:12:36;3.92;;;2.30;;
3307;SDS011;1666;48.898;9.182;2022-07-03T01:15:32;3.10;;;2.33;;
3307;SDS011;1666;48.898;9.182;2022-07-03T01:18:17;2.58;;;2.28;;
3307;SDS011;1666;48.898;9.182;2022-07-03T01:20:57;3.85;;;2.80;;
3307;SDS011;1666;48.898;9.182;2022-07-03T01:23:40;4.07;;;2.88;;
3307;SDS011;1666;48.898;9.182;2022-07-03T01:26:36;2.97;;;2.38;;
3307;SDS011;1666;48.898;9.182;2022-07-03T01:29:12;4.95;;;2.90;;
3307;SDS011;1666;48.898;9.182;2022-07-03T01:31:44;4.03;;;2.40;;
3307;SDS011;1666;48.898;9.182;2022-07-03T01:34:18;5.72;;;2.65;;
3307;SDS011;1666;48.898;9.182;2022-07-03T01:36:48;2.92;;;2.63;;
3307;SDS011;1666;48.898;9.182;2022-07-03T01:42:17;2.80;;;2.50;;
3307;SDS011;1666;48.898;9.182;2022-07-03T01:44:47;3.00;;;2.60;;
3307;SDS011;1666;48.898;9.182;2022-07-03T01:47:20;4.70;;;2.65;;
3307;SDS011;1666;48.898;9.182;2022-07-03T01:49:54;2.90;;;2.35;;
3307;SDS011;1666;48.898;9.182;2022-07-03T01:52:24;3.88;;;2.70;;
3307;SDS011;1666;48.898;9.182;2022-07-03T01:55:11;2.97;;;2.35;;
3307;SDS011;1666;48.898;9.182;2022-07-03T01:57:45;3.33;;;2.55;;
3307;SDS011;1666;48.898;9.182;2022-07-03T02:00:17;3.28;;;2.50;;
3307;SDS011;1666;48.898;9.182;2022-07-03T02:02:50;6.15;;;2.70;;
3307;SDS011;1666;48.898;9.182;2022-07-03T02:05:32;5.18;;;2.97;;
3307;SDS011;1666;48.898;9.182;2022-07-03T02:08:08;3.45;;;2.70;;
3307;SDS011;1666;48.898;9.182;2022-07-03T02:10:45;3.55;;;2.88;;
3307;SDS011;1666;48.898;9.182;2022-07-03T02:13:24;4.78;;;2.78;;
3307;SDS011;1666;48.898;9.182;2022-07-03T02:15:58;4.63;;;2.70;;
3307;SDS011;1666;48.898;9.182;2022-07-03T02:18:31;5.63;;;2.55;;
3307;SDS011;1666;48.898;9.182;2022-07-03T02:21:06;3.65;;;2.75;;
3307;SDS011;1666;48.898;9.182;2022-07-03T02:23:43;3.63;;;2.50;;
3307;SDS011;1666;48.898;9.182;2022-07-03T02:26:24;3.95;;;3.08;;
3307;SDS011;1666;48.898;9.182;2022-07-03T02:29:02;3.50;;;2.60;;
3307;SDS011;1666;48.898;9.182;2022-07-03T02:31:34;2.75;;;2.45;;
3307;SDS011;1666;48.898;9.182;2022-07-03T02:34:11;4.32;;;2.72;;
3307;SDS011;1666;48.898;9.182;2022-07-03T02:36:45;3.97;;;2.50;;
3307;SDS011;1666;48.898;9.182;2022-07-03T02:39:20;4.10;;;3.00;;
3307;SDS011;1666;48.898;9.182;2022-07-03T02:41:56;6.78;;;2.92;;
3307;SDS011;1666;48.898;9.182;2022-07-03T02:44:31;3.78;;;2.47;;
3307;SDS011;1666;48.898;9.182;2022-07-03T02:47:12;4.10;;;2.30;;
3307;SDS011;1666;48.898;9.182;2022-07-03T02:49:50;4.85;;;2.70;;
3307;SDS011;1666;48.898;9.182;2022-07-03T02:52:30;4.13;;;2.92;;
3307;SDS011;1666;48.898;9.182;2022-07-03T02:55:10;3.10;;;2.78;;
3307;SDS011;1666;48.898;9.182;2022-07-03T02:57:55;6.00;;;2.97;;
3307;SDS011;1666;48.898;9.182;2022-07-03T03:00:37;5.15;;;3.08;;
3307;SDS011;1666;48.898;9.182;2022-07-03T03:03:10;4.10;;;2.78;;
3307;SDS011;1666;48.898;9.182;2022-07-03T03:05:40;4.15;;;2.80;;
3307;SDS011;1666;48.898;9.182;2022-07-03T03:08:16;5.13;;;3.03;;
3307;SDS011;1666;48.898;9.182;2022-07-03T03:10:51;4.07;;;2.53;;
3307;SDS011;1666;48.898;9.182;2022-07-03T03:13:23;4.13;;;2.78;;
3307;SDS011;1666;48.898;9.182;2022-07-03T03:16:04;3.47;;;2.50;;
3307;SDS011;1666;48.898;9.182;2022-07-03T03:18:35;4.55;;;2.60;;
3307;SDS011;1666;48.898;9.182;2022-07-03T03:21:08;4.80;;;2.72;;
3307;SDS011;1666;48.898;9.182;2022-07-03T03:23:42;3.05;;;2.58;;
3307;SDS011;1666;48.898;9.182;2022-07-03T03:26:16;3.60;;;2.78;;
3307;SDS011;1666;48.898;9.182;2022-07-03T03:28:48;4.30;;;2.85;;
3307;SDS011;1666;48.898;9.182;2022-07-03T03:31:21;3.42;;;2.67;;
3307;SDS011;1666;48.898;9.182;2022-07-03T03:33:51;3.80;;;2.55;;
3307;SDS011;1666;48.898;9.182;2022-07-03T03:36:21;5.00;;;2.83;;
3307;SDS011;1666;48.898;9.182;2022-07-03T03:38:53;4.45;;;2.83;;
3307;SDS011;1666;48.898;9.182;2022-07-03T03:41:23;4.45;;;2.90;;
3307;SDS011;1666;48.898;9.182;2022-07-03T03:43:53;6.13;;;2.53;;
3307;SDS011;1666;48.898;9.182;2022-07-03T03:46:25;3.03;;;2.72;;
3307;SDS011;1666;48.898;9.182;2022-07-03T03:48:55;4.03;;;2.72;;
3307;SDS011;1666;48.898;9.182;2022-07-03T03:51:26;6.47;;;2.58;;
3307;SDS011;1666;48.898;9.182;2022-07-03T03:53:56;4.45;;;2.63;;
3307;SDS011;1666;48.898;9.182;2022-07-03T03:56:25;4.38;;;2.60;;
3307;SDS011;1666;48.898;9.182;2022-07-03T03:58:55;6.47;;;2.58;;
3307;SDS011;1666;48.898;9.182;2022-07-03T04:01:28;4.57;;;2.65;;
3307;SDS011;1666;48.898;9.182;2022-07-03T04:03:58;3.67;;;2.03;;
3307;SDS011;1666;48.898;9.182;2022-07-03T04:06:28;3.08;;;2.55;;
3307;SDS011;1666;48.898;9.182;2022-07-03T04:08:58;6.50;;;2.50;;
3307;SDS011;1666;48.898;9.182;2022-07-03T04:11:28;3.13;;;2.40;;
3307;SDS011;1666;48.898;9.182;2022-07-03T04:13:58;3.08;;;2.00;;
3307;SDS011;1666;48.898;9.182;2022-07-03T04:16:30;2.90;;;2.30;;
3307;SDS011;1666;48.898;9.182;2022-07-03T04:21:31;5.03;;;2.63;;
3307;SDS011;1666;48.898;9.182;2022-07-03T04:24:01;4.60;;;2.53;;
3307;SDS011;1666;48.898;9.182;2022-07-03T04:26:31;2.88;;;2.13;;
3307;SDS011;1666;48.898;9.182;2022-07-03T04:29:01;4.60;;;2.58;;
3307;SDS011;1666;48.898;9.182;2022-07-03T04:31:34;4.40;;;2.22;;
3307;SDS011;1666;48.898;9.182;2022-07-03T04:34:04;3.15;;;2.20;;
3307;SDS011;1666;48.898;9.182;2022-07-03T04:36:34;4.88;;;2.50;;
3307;SDS011;1666;48.898;9.182;2022-07-03T04:39:03;2.65;;;2.20;;
3307;SDS011;1666;48.898;9.182;2022-07-03T04:41:33;4.00;;;2.38;;
3307;SDS011;1666;48.898;9.182;2022-07-03T04:44:03;8.13;;;2.38;;
3307;SDS011;1666;48.898;9.182;2022-07-03T04:46:36;2.85;;;2.10;;
3307;SDS011;1666;48.898;9.182;2022-07-03T04:49:06;3.85;;;2.05;;
3307;SDS011;1666;48.898;9.182;2022-07-03T04:51:36;2.70;;;2.00;;
3307;SDS011;1666;48.898;9.182;2022-07-03T04:54:06;3.33;;;2.38;;
3307;SDS011;1666;48.898;9.182;2022-07-03T04:56:36;3.70;;;1.88;;
3307;SDS011;1666;48.898;9.182;2022-07-03T04:59:06;2.45;;;2.17;;
3307;SDS011;1666;48.898;9.182;2022-07-03T05:01:38;2.20;;;1.85;;
3307;SDS011;1666;48.898;9.182;2022-07-03T05:04:08;5.07;;;2.17;;
3307;SDS011;1666;48.898;9.182;2022-07-03T05:06:38;2.25;;;1.98;;
3307;SDS011;1666;48.898;9.182;2022-07-03T05:09:08;4.07;;;1.95;;
3307;SDS011;1666;48.898;9.182;2022-07-03T05:11:38;4.28;;;2.00;;
3307;SDS011;1666;48.898;9.182;2022-07-03T05:14:08;2.60;;;1.88;;
3307;SDS011;1666;48.898;9.182;2022-07-03T05:16:41;4.55;;;2.00;;
3307;SDS011;1666;48.898;9.182;2022-07-03T05:19:10;2.53;;;2.00;;
3307;SDS011;1666;48.898;9.182;2022-07-03T05:21:40;2.67;;;1.90;;
3307;SDS011;1666;48.898;9.182;2022-07-03T05:24:10;2.60;;;1.80;;
3307;SDS011;1666;48.898;9.182;2022-07-03T05:26:40;3.38;;;2.00;;
3307;SDS011;1666;48.898;9.182;2022-07-03T05:29:10;5.15;;;1.98;;
3307;SDS011;1666;48.898;9.182;2022-07-03T05:31:42;4.90;;;2.30;;
3307;SDS011;1666;48.898;9.182;2022-07-03T05:34:13;5.17;;;2.23;;
3307;SDS011;1666;48.898;9.182;2022-07-03T05:36:43;5.13;;;2.20;;
3307;SDS011;1666;48.898;9.182;2022-07-03T05:39:13;2.60;;;1.90;;
3307;SDS011;1666;48.898;9.182;2022-07-03T05:41:55;2.47;;;1.92;;
3307;SDS011;1666;48.898;9.182;2022-07-03T05:44:25;3.72;;;2.20;;
3307;SDS011;1666;48.898;9.182;2022-07-03T05:46:57;4.10;;;2.00;;
3307;SDS011;1666;48.898;9.182;2022-07-03T05:49:27;4.95;;;1.85;;
3307;SDS011;1666;48.898;9.182;2022-07-03T05:51:57;5.35;;;2.20;;
3307;SDS011;1666;48.898;9.182;2022-07-03T05:54:27;2.42;;;2.13;;
3307;SDS011;1666;48.898;9.182;2022-07-03T05:56:56;3.13;;;2.30;;
3307;SDS011;1666;48.898;9.182;2022-07-03T05:59:26;3.08;;;2.20;;
3307;SDS011;1666;48.898;9.182;2022-07-03T06:01:59;4.30;;;2.25;;
3307;SDS011;1666;48.898;9.182;2022-07-03T06:04:29;3.22;;;2.20;;
3307;SDS011;1666;48.898;9.182;2022-07-03T06:06:59;3.20;;;1.95;;
3307;SDS011;1666;48.898;9.182;2022-07-03T06:09:28;2.10;;;1.80;;
3307;SDS011;1666;48.898;9.182;2022-07-03T06:11:58;3.28;;;2.13;;
3307;SDS011;1666;48.898;9.182;2022-07-03T06:14:28;2.67;;;1.70;;
3307;SDS011;1666;48.898;9.182;2022-07-03T06:17:01;3.25;;;2.00;;
3307;SDS011;1666;48.898;9.182;2022-07-03T06:19:31;6.30;;;2.58;;
3307;SDS011;1666;48.898;9.182;2022-07-03T06:22:01;4.85;;;2.25;;
3307;SDS011;1666;48.898;9.182;2022-07-03T06:24:30;2.50;;;1.85;;
3307;SDS011;1666;48.898;9.182;2022-07-03T06:27:00;4.00;;;2.20;;
3307;SDS011;1666;48.898;9.182;2022-07-03T06:29:30;6.05;;;1.90;;
3307;SDS011;1666;48.898;9.182;2022-07-03T06:32:03;6.55;;;2.08;;
3307;SDS011;1666;48.898;9.182;2022-07-03T06:34:33;2.27;;;1.83;;
3307;SDS011;1666;48.898;9.182;2022-07-03T06:37:03;3.28;;;1.90;;
3307;SDS011;1666;48.898;9.182;2022-07-03T06:39:33;2.20;;;1.70;;
3307;SDS011;1666;48.898;9.182;2022-07-03T06:42:04;2.20;;;1.95;;
3307;SDS011;1666;48.898;9.182;2022-07-03T06:44:34;2.70;;;1.92;;
3307;SDS011;1666;48.898;9.182;2022-07-03T06:47:07;5.32;;;1.70;;
3307;SDS011;1666;48.898;9.182;2022-07-03T06:49:37;2.70;;;1.80;;
3307;SDS011;1666;48.898;9.182;2022-07-03T06:52:07;1.92;;;1.73;;
3307;SDS011;1666;48.898;9.182;2022-07-03T06:54:38;3.65;;;1.70;;
3307;SDS011;1666;48.898;9.182;2022-07-03T06:57:10;2.10;;;1.70;;
3307;SDS011;1666;48.898;9.182;2022-07-03T06:59:40;3.20;;;1.70;;
3307;SDS011;1666;48.898;9.182;2022-07-03T07:02:13;2.15;;;1.42;;
3307;SDS011;1666;48.898;9.182;2022-07-03T07:04:43;2.33;;;1.50;;
3307;SDS011;1666;48.898;9.182;2022-07-03T07:07:13;3.45;;;1.50;;
3307;SDS011;1666;48.898;9.182;2022-07-03T07:09:43;2.55;;;1.60;;
3307;SDS011;1666;48.898;9.182;2022-07-03T07:12:13;2.38;;;1.67;;
3307;SDS011;1666;48.898;9.182;2022-07-03T07:14:42;2.05;;;1.40;;
3307;SDS011;1666;48.898;9.182;2022-07-03T07:17:15;2.17;;;1.38;;
3307;SDS011;1666;48.898;9.182;2022-07-03T07:19:45;3.75;;;2.00;;
3307;SDS011;1666;48.898;9.182;2022-07-03T07:22:14;2.42;;;1.42;;
3307;SDS011;1666;48.898;9.182;2022-07-03T07:24:47;2.10;;;1.75;;
3307;SDS011;1666;48.898;9.182;2022-07-03T07:27:17;1.90;;;1.40;;
3307;SDS011;1666;48.898;9.182;2022-07-03T07:29:47;2.00;;;1.65;;
3307;SDS011;1666;48.898;9.182;2022-07-03T07:32:19;2.28;;;1.60;;
3307;SDS011;1666;48.898;9.182;2022-07-03T07:34:49;3.65;;;1.85;;
3307;SDS011;1666;48.898;9.182;2022-07-03T07:37:19;1.95;;;1.50;;
3307;SDS011;1666;48.898;9.182;2022-07-03T07:39:49;3.50;;;1.88;;
3307;SDS011;1666;48.898;9.182;2022-07-03T07:42:22;3.95;;;1.50;;
3307;SDS011;1666;48.898;9.182;2022-07-03T07:44:54;1.95;;;1.48;;
3307;SDS011;1666;48.898;9.182;2022-07-03T07:47:26;2.10;;;1.48;;
3307;SDS011;1666;48.898;9.182;2022-07-03T07:49:56;2.90;;;1.50;;
3307;SDS011;1666;48.898;9.182;2022-07-03T07:52:26;1.95;;;1.30;;
3307;SDS011;1666;48.898;9.182;2022-07-03T07:54:56;1.73;;;1.50;;
3307;SDS011;1666;48.898;9.182;2022-07-03T07:57:29;1.77;;;1.02;;
3307;SDS011;1666;48.898;9.182;2022-07-03T08:00:06;1.40;;;1.10;;
3307;SDS011;1666;48.898;9.182;2022-07-03T08:02:40;1.67;;;0.90;;
3307;SDS011;1666;48.898;9.182;2022-07-03T08:05:23;2.92;;;1.30;;
3307;SDS011;1666;48.898;9.182;2022-07-03T08:08:05;1.98;;;0.90;;
3307;SDS011;1666;48.898;9.182;2022-07-03T08:10:37;3.25;;;1.10;;
3307;SDS011;1666;48.898;9.182;2022-07-03T08:13:08;1.58;;;1.15;;
3307;SDS011;1666;48.898;9.182;2022-07-03T08:15:39;1.10;;;1.00;;
3307;SDS011;1666;48.898;9.182;2022-07-03T08:18:13;1.20;;;0.80;;
3307;SDS011;1666;48.898;9.182;2022-07-03T08:20:43;2.45;;;0.90;;
3307;SDS011;1666;48.898;9.182;2022-07-03T08:23:13;1.08;;;0.80;;
3307;SDS011;1666;48.898;9.182;2022-07-03T08:25:43;1.25;;;0.80;;
3307;SDS011;1666;48.898;9.182;2022-07-03T08:28:13;1.52;;;0.70;;
3307;SDS011;1666;48.898;9.182;2022-07-03T08:30:43;1.67;;;0.98;;
3307;SDS011;1666;48.898;9.182;2022-07-03T08:33:16;1.33;;;0.80;;
3307;SDS011;1666;48.898;9.182;2022-07-03T08:35:46;1.20;;;0.68;;
3307;SDS011;1666;48.898;9.182;2022-07-03T08:38:16;1.23;;;0.82;;
3307;SDS011;1666;48.898;9.182;2022-07-03T08:40:46;4.90;;;0.80;;
3307;SDS011;1666;48.898;9.182;2022-07-03T08:43:19;3.20;;;0.70;;
3307;SDS011;1666;48.898;9.182;2022-07-03T08:45:56;0.80;;;0.70;;
3307;SDS011;1666;48.898;9.182;2022-07-03T08:48:30;1.40;;;0.80;;
3307;SDS011;1666;48.898;9.182;2022-07-03T08:51:02;3.63;;;0.70;;
3307;SDS011;1666;48.898;9.182;2022-07-03T08:53:32;0.70;;;0.70;;
3307;SDS011;1666;48.898;9.182;2022-07-03T08:56:03;1.23;;;0.80;;
3307;SDS011;1666;48.898;9.182;2022-07-03T08:58:33;1.92;;;0.82;;
3307;SDS011;1666;48.898;9.182;2022-07-03T09:01:04;2.72;;;0.93;;
3307;SDS011;1666;48.898;9.182;2022-07-03T09:03:38;1.75;;;0.82;;
3307;SDS011;1666;48.898;9.182;2022-07-03T09:06:09;1.67;;;0.55;;
3307;SDS011;1666;48.898;9.182;2022-07-03T09:08:39;0.93;;;0.60;;
3307;SDS011;1666;48.898;9.182;2022-07-03T09:11:10;0.73;;;0.60;;
3307;SDS011;1666;48.898;9.182;2022-07-03T09:13:40;1.08;;;0.82;;
3307;SDS011;1666;48.898;9.182;2022-07-03T09:16:16;1.25;;;0.70;;
3307;SDS011;1666;48.898;9.182;2022-07-03T09:18:48;1.95;;;0.65;;
3307;SDS011;1666;48.898;9.182;2022-07-03T09:21:18;0.73;;;0.60;;
3307;SDS011;1666;48.898;9.182;2022-07-03T09:23:50;0.50;;;0.50;;
3307;SDS011;1666;48.898;9.182;2022-07-03T09:26:20;0.70;;;0.60;;
3307;SDS011;1666;48.898;9.182;2022-07-03T09:28:54;0.70;;;0.60;;
3307;SDS011;1666;48.898;9.182;2022-07-03T09:31:24;1.40;;;0.80;;
3307;SDS011;1666;48.898;9.182;2022-07-03T09:33:59;1.20;;;0.70;;
3307;SDS011;1666;48.898;9.182;2022-07-03T09:36:40;2.15;;;0.68;;
3307;SDS011;1666;48.898;9.182;2022-07-03T09:39:22;0.85;;;0.65;;
3307;SDS011;1666;48.898;9.182;2022-07-03T09:41:56;0.80;;;0.73;;
3307;SDS011;1666;48.898;9.182;2022-07-03T09:44:33;1.85;;;0.88;;
3307;SDS011;1666;48.898;9.182;2022-07-03T09:47:13;0.90;;;0.70;;
3307;SDS011;1666;48.898;9.182;2022-07-03T09:49:47;1.20;;;0.90;;
3307;SDS011;1666;48.898;9.182;2022-07-03T09:55:13;1.50;;;0.70;;
3307;SDS011;1666;48.898;9.182;2022-07-03T09:57:45;1.83;;;1.15;;
3307;SDS011;1666;48.898;9.182;2022-07-03T10:00:29;1.70;;;0.90;;
3307;SDS011;1666;48.898;9.182;2022-07-03T10:03:00;0.90;;;0.77;;
3307;SDS011;1666;48.898;9.182;2022-07-03T10:05:36;0.93;;;0.80;;
3307;SDS011;1666;48.898;9.182;2022-07-03T10:08:08;0.80;;;0.80;;
3307;SDS011;1666;48.898;9.182;2022-07-03T10:10:42;0.88;;;0.68;;
3307;SDS011;1666;48.898;9.182;2022-07-03T10:13:13;1.35;;;0.88;;
3307;SDS011;1666;48.898;9.182;2022-07-03T10:15:44;2.78;;;0.80;;
3307;SDS011;1666;48.898;9.182;2022-07-03T10:18:14;2.40;;;1.00;;
3307;SDS011;1666;48.898;9.182;2022-07-03T10:20:49;1.63;;;0.75;;
3307;SDS011;1666;48.898;9.182;2022-07-03T10:23:20;2.50;;;0.63;;
3307;SDS011;1666;48.898;9.182;2022-07-03T10:25:50;1.38;;;0.63;;
3307;SDS011;1666;48.898;9.182;2022-07-03T10:28:22;0.93;;;0.70;;
3307;SDS011;1666;48.898;9.182;2022-07-03T10:30:56;1.40;;;0.85;;
3307;SDS011;1666;48.898;9.182;2022-07-03T10:33:26;1.20;;;0.75;;
3307;SDS011;1666;48.898;9.182;2022-07-03T10:36:03;1.70;;;0.90;;
3307;SDS011;1666;48.898;9.182;2022-07-03T10:38:36;3.30;;;0.80;;
3307;SDS011;1666;48.898;9.182;2022-07-03T10:41:09;1.65;;;0.85;;
3307;SDS011;1666;48.898;9.182;2022-07-03T10:44:00;0.88;;;0.77;;
3307;SDS011;1666;48.898;9.182;2022-07-03T10:46:42;2.45;;;0.80;;
3307;SDS011;1666;48.898;9.182;2022-07-03T10:49:12;2.00;;;0.90;;
3307;SDS011;1666;48.898;9.182;2022-07-03T10:51:55;1.75;;;1.13;;
3307;SDS011;1666;48.898;9.182;2022-07-03T10:54:27;3.15;;;0.90;;
3307;SDS011;1666;48.898;9.182;2022-07-03T10:57:09;2.10;;;0.63;;
3307;SDS011;1666;48.898;9.182;2022-07-03T11:02:45;0.98;;;0.80;;
3307;SDS011;1666;48.898;9.182;2022-07-03T11:05:23;1.35;;;0.70;;
3307;SDS011;1666;48.898;9.182;2022-07-03T11:08:10;0.80;;;0.57;;
3307;SDS011;1666;48.898;9.182;2022-07-03T11:10:43;1.00;;;0.60;;
3307;SDS011;1666;48.898;9.182;2022-07-03T11:13:36;0.88;;;0.63;;
3307;SDS011;1666;48.898;9.182;2022-07-03T11:16:26;1.30;;;0.98;;
3307;SDS011;1666;48.898;9.182;2022-07-03T11:19:02;1.02;;;0.70;;
3307;SDS011;1666;48.898;9.182;2022-07-03T11:21:33;1.95;;;0.70;;
3307;SDS011;1666;48.898;9.182;2022-07-03T11:24:27;1.25;;;0.88;;
3307;SDS011;1666;48.898;9.182;2022-07-03T11:27:11;0.70;;;0.60;;
3307;SDS011;1666;48.898;9.182;2022-07-03T11:29:47;0.90;;;0.63;;
3307;SDS011;1666;48.898;9.182;2022-07-03T11:38:29;1.05;;;0.80;;
3307;SDS011;1666;48.898;9.182;2022-07-03T11:41:02;1.13;;;0.60;;
3307;SDS011;1666;48.898;9.182;2022-07-03T11:43:36;1.80;;;0.70;;
3307;SDS011;1666;48.898;9.182;2022-07-03T11:46:07;0.88;;;0.55;;
3307;SDS011;1666;48.898;9.182;2022-07-03T11:48:37;4.78;;;0.90;;
3307;SDS011;1666;48.898;9.182;2022-07-03T11:51:07;1.45;;;0.70;;
3307;SDS011;1666;48.898;9.182;2022-07-03T11:53:38;1.55;;;1.15;;
3307;SDS011;1666;48.898;9.182;2022-07-03T11:56:11;1.42;;;0.75;;
3307;SDS011;1666;48.898;9.182;2022-07-03T11:58:43;0.85;;;0.80;;
3307;SDS011;1666;48.898;9.182;2022-07-03T12:01:27;1.42;;;0.80;;
3307;SDS011;1666;48.898;9.182;2022-07-03T12:04:07;1.30;;;0.80;;
3307;SDS011;1666;48.898;9.182;2022-07-03T12:06:40;1.08;;;0.60;;
3307;SDS011;1666;48.898;9.182;2022-07-03T12:09:13;1.40;;;0.70;;
3307;SDS011;1666;48.898;9.182;2022-07-03T12:11:56;2.47;;;0.80;;
3307;SDS011;1666;48.898;9.182;2022-07-03T12:14:34;2.53;;;0.82;;
3307;SDS011;1666;48.898;9.182;2022-07-03T12:17:07;2.65;;;0.70;;
3307;SDS011;1666;48.898;9.182;2022-07-03T12:19:48;3.08;;;1.00;;
3307;SDS011;1666;48.898;9.182;2022-07-03T12:22:27;2.60;;;0.80;;
3307;SDS011;1666;48.898;9.182;2022-07-03T12:25:00;1.52;;;1.00;;
3307;SDS011;1666;48.898;9.182;2022-07-03T12:27:35;1.67;;;0.80;;
3307;SDS011;1666;48.898;9.182;2022-07-03T12:30:07;1.67;;;1.00;;
3307;SDS011;1666;48.898;9.182;2022-07-03T12:32:39;4.22;;;0.82;;
3307;SDS011;1666;48.898;9.182;2022-07-03T12:35:09;0.80;;;0.68;;
3307;SDS011;1666;48.898;9.182;2022-07-03T12:37:40;4.97;;;0.90;;
3307;SDS011;1666;48.898;9.182;2022-07-03T12:40:12;2.03;;;0.70;;
3307;SDS011;1666;48.898;9.182;2022-07-03T12:42:47;0.90;;;0.60;;
3307;SDS011;1666;48.898;9.182;2022-07-03T12:45:19;14.60;;;1.25;;
3307;SDS011;1666;48.898;9.182;2022-07-03T12:47:59;1.15;;;0.80;;
3307;SDS011;1666;48.898;9.182;2022-07-03T12:50:45;0.95;;;0.75;;
3307;SDS011;1666;48.898;9.182;2022-07-03T12:53:27;1.35;;;0.80;;
3307;SDS011;1666;48.898;9.182;2022-07-03T12:55:59;1.02;;;0.70;;
3307;SDS011;1666;48.898;9.182;2022-07-03T12:58:33;2.33;;;0.80;;
3307;SDS011;1666;48.898;9.182;2022-07-03T13:01:25;1.00;;;0.73;;
3307;SDS011;1666;48.898;9.182;2022-07-03T13:03:56;1.73;;;0.90;;
3307;SDS011;1666;48.898;9.182;2022-07-03T13:06:26;1.27;;;0.80;;
3307;SDS011;1666;48.898;9.182;2022-07-03T13:08:57;1.65;;;0.90;;
3307;SDS011;1666;48.898;9.182;2022-07-03T13:11:28;1.10;;;0.80;;
3307;SDS011;1666;48.898;9.182;2022-07-03T13:14:10;2.10;;;0.80;;
3307;SDS011;1666;48.898;9.182;2022-07-03T13:16:42;2.42;;;0.80;;
3307;SDS011;1666;48.898;9.182;2022-07-03T13:19:13;1.20;;;0.82;;
3307;SDS011;1666;48.898;9.182;2022-07-03T13:21:45;0.88;;;0.70;;
3307;SDS011;1666;48.898;9.182;2022-07-03T13:24:16;1.15;;;0.90;;
3307;SDS011;1666;48.898;9.182;2022-07-03T13:26:46;2.33;;;0.90;;
3307;SDS011;1666;48.898;9.182;2022-07-03T13:29:22;0.75;;;0.73;;
3307;SDS011;1666;48.898;9.182;2022-07-03T13:31:53;1.27;;;1.00;;
3307;SDS011;1666;48.898;9.182;2022-07-03T13:34:23;1.00;;;0.80;;
3307;SDS011;1666;48.898;9.182;2022-07-03T13:36:53;3.20;;;0.80;;
3307;SDS011;1666;48.898;9.182;2022-07-03T13:39:23;3.13;;;0.82;;
3307;SDS011;1666;48.898;9.182;2022-07-03T13:41:53;5.25;;;1.00;;
3307;SDS011;1666;48.898;9.182;2022-07-03T13:44:25;1.83;;;0.70;;
3307;SDS011;1666;48.898;9.182;2022-07-03T13:46:55;0.70;;;0.70;;
3307;SDS011;1666;48.898;9.182;2022-07-03T13:49:25;1.08;;;0.60;;
3307;SDS011;1666;48.898;9.182;2022-07-03T13:51:55;1.65;;;0.88;;
3307;SDS011;1666;48.898;9.182;2022-07-03T13:54:24;1.13;;;0.70;;
3307;SDS011;1666;48.898;9.182;2022-07-03T13:56:54;0.90;;;0.70;;
3307;SDS011;1666;48.898;9.182;2022-07-03T13:59:27;1.52;;;0.70;;
3307;SDS011;1666;48.898;9.182;2022-07-03T14:01:57;0.80;;;0.70;;
3307;SDS011;1666;48.898;9.182;2022-07-03T14:04:27;1.10;;;0.80;;
3307;SDS011;1666;48.898;9.182;2022-07-03T14:06:57;2.28;;;0.90;;
3307;SDS011;1666;48.898;9.182;2022-07-03T14:09:28;1.27;;;0.90;;
3307;SDS011;1666;48.898;9.182;2022-07-03T14:11:57;2.17;;;0.93;;
3307;SDS011;1666;48.898;9.182;2022-07-03T14:14:30;1.35;;;0.80;;
3307;SDS011;1666;48.898;9.182;2022-07-03T14:17:00;2.55;;;1.35;;
3307;SDS011;1666;48.898;9.182;2022-07-03T14:19:30;2.38;;;0.90;;
3307;SDS011;1666;48.898;9.182;2022-07-03T14:22:00;6.03;;;1.98;;
3307;SDS011;1666;48.898;9.182;2022-07-03T14:24:30;1.23;;;0.80;;
3307;SDS011;1666;48.898;9.182;2022-07-03T14:27:00;1.73;;;0.80;;
3307;SDS011;1666;48.898;9.182;2022-07-03T14:29:50;1.80;;;1.10;;
3307;SDS011;1666;48.898;9.182;2022-07-03T14:32:33;3.65;;;1.00;;
3307;SDS011;1666;48.898;9.182;2022-07-03T14:35:03;2.53;;;1.15;;
3307;SDS011;1666;48.898;9.182;2022-07-03T14:37:34;1.48;;;0.73;;
3307;SDS011;1666;48.898;9.182;2022-07-03T14:40:04;1.55;;;0.80;;
3307;SDS011;1666;48.898;9.182;2022-07-03T14:42:35;1.77;;;0.80;;
3307;SDS011;1666;48.898;9.182;2022-07-03T14:45:08;0.90;;;0.70;;
3307;SDS011;1666;48.898;9.182;2022-07-03T14:50:08;2.78;;;0.90;;
3307;SDS011;1666;48.898;9.182;2022-07-03T14:52:38;2.97;;;0.70;;
3307;SDS011;1666;48.898;9.182;2022-07-03T14:55:08;0.98;;;0.73;;
3307;SDS011;1666;48.898;9.182;2022-07-03T14:57:42;1.42;;;0.70;;
3307;SDS011;1666;48.898;9.182;2022-07-03T15:00:22;1.65;;;0.88;;
3307;SDS011;1666;48.898;9.182;2022-07-03T15:03:00;3.75;;;0.98;;
3307;SDS011;1666;48.898;9.182;2022-07-03T15:05:35;0.82;;;0.70;;
3307;SDS011;1666;48.898;9.182;2022-07-03T15:08:12;3.03;;;0.75;;
3307;SDS011;1666;48.898;9.182;2022-07-03T15:10:52;1.70;;;0.65;;
3307;SDS011;1666;48.898;9.182;2022-07-03T15:13:22;1.60;;;1.00;;
3307;SDS011;1666;48.898;9.182;2022-07-03T15:15:57;3.17;;;0.70;;
3307;SDS011;1666;48.898;9.182;2022-07-03T15:18:27;1.98;;;0.70;;
3307;SDS011;1666;48.898;9.182;2022-07-03T15:20:58;2.25;;;0.80;;
3307;SDS011;1666;48.898;9.182;2022-07-03T15:23:29;1.20;;;0.70;;
3307;SDS011;1666;48.898;9.182;2022-07-03T15:26:00;3.67;;;1.33;;
3307;SDS011;1666;48.898;9.182;2022-07-03T15:28:30;2.60;;;0.90;;
3307;SDS011;1666;48.898;9.182;2022-07-03T15:31:04;5.90;;;1.25;;
3307;SDS011;1666;48.898;9.182;2022-07-03T15:33:36;1.70;;;0.80;;
3307;SDS011;1666;48.898;9.182;2022-07-03T15:36:06;0.82;;;0.70;;
3307;SDS011;1666;48.898;9.182;2022-07-03T15:38:37;1.60;;;0.90;;
3307;SDS011;1666;48.898;9.182;2022-07-03T15:41:12;3.35;;;0.70;;
3307;SDS011;1666;48.898;9.182;2022-07-03T15:43:54;2.38;;;0.70;;
3307;SDS011;1666;48.898;9.182;2022-07-03T15:46:39;2.10;;;0.80;;
3307;SDS011;1666;48.898;9.182;2022-07-03T15:49:25;1.45;;;0.68;;
3307;SDS011;1666;48.898;9.182;2022-07-03T15:52:00;1.40;;;0.70;;
3307;SDS011;1666;48.898;9.182;2022-07-03T15:54:46;0.80;;;0.80;;
3307;SDS011;1666;48.898;9.182;2022-07-03T15:57:28;1.60;;;0.60;;
3307;SDS011;1666;48.898;9.182;2022-07-03T16:00:05;3.03;;;0.77;;
3307;SDS011;1666;48.898;9.182;2022-07-03T16:02:44;0.90;;;0.70;;
3307;SDS011;1666;48.898;9.182;2022-07-03T16:05:24;1.45;;;0.65;;
3307;SDS011;1666;48.898;9.182;2022-07-03T16:07:55;1.45;;;0.70;;
3307;SDS011;1666;48.898;9.182;2022-07-03T16:10:27;1.77;;;0.95;;
3307;SDS011;1666;48.898;9.182;2022-07-03T16:12:59;0.80;;;0.70;;